createdAt,value
2019-06-27T00:01:40.543Z,25.37
2019-06-27T00:04:12.132Z,25.37
2019-06-27T00:06:44.038Z,25.38
2019-06-27T00:09:16.684Z,25.35
2019-06-27T00:11:48.283Z,25.27
2019-06-27T00:14:19.835Z,25.17
2019-06-27T00:16:53.025Z,25.14
2019-06-27T00:19:24.597Z,25.13
2019-06-27T00:21:56.232Z,25.15
2019-06-27T00:24:27.781Z,25.15
2019-06-27T00:26:59.381Z,25.15
2019-06-27T00:29:30.948Z,25.14
2019-06-27T00:32:02.534Z,25.13
2019-06-27T00:34:34.103Z,25.07
2019-06-27T00:37:05.685Z,25.02
2019-06-27T00:39:38.312Z,25.03
2019-06-27T00:42:09.926Z,25.03
2019-06-27T00:44:41.521Z,25.03
2019-06-27T00:47:13.082Z,25.03
2019-06-27T00:49:44.653Z,25.03
2019-06-27T00:52:16.200Z,25.02
2019-06-27T00:54:47.804Z,25.02
2019-06-27T00:57:19.430Z,24.99
2019-06-27T00:59:50.977Z,24.98
2019-06-27T01:02:22.600Z,24.96
2019-06-27T01:04:55.120Z,24.92
2019-06-27T01:07:26.651Z,24.90
2019-06-27T01:10:01.141Z,24.86
2019-06-27T01:12:31.497Z,24.85
2019-06-27T01:15:03.243Z,24.82
2019-06-27T01:17:34.769Z,24.80
2019-06-27T01:20:06.792Z,24.70
2019-06-27T01:22:38.467Z,24.66
2019-06-27T01:25:10.455Z,24.64
2019-06-27T01:27:42.029Z,24.61
2019-06-27T01:30:15.214Z,24.60
2019-06-27T01:32:46.827Z,24.57
2019-06-27T01:35:18.505Z,24.56
2019-06-27T01:37:50.236Z,24.55
2019-06-27T01:40:22.406Z,24.56
2019-06-27T01:42:53.988Z,24.52
2019-06-27T01:45:31.297Z,24.45
2019-06-27T01:48:02.869Z,24.38
2019-06-27T01:50:34.460Z,24.34
2019-06-27T01:53:07.122Z,24.32
2019-06-27T01:55:38.701Z,24.27
2019-06-27T01:58:10.280Z,24.21
2019-06-27T02:00:41.853Z,24.20
2019-06-27T02:03:13.460Z,24.17
2019-06-27T02:05:45.122Z,24.15
2019-06-27T02:08:17.795Z,24.14
2019-06-27T02:10:49.366Z,24.15
2019-06-27T02:13:20.952Z,24.15
2019-06-27T02:15:52.512Z,24.16
2019-06-27T02:18:24.136Z,24.11
2019-06-27T02:20:55.707Z,24.09
2019-06-27T02:23:27.276Z,24.08
2019-06-27T02:25:58.936Z,24.07
2019-06-27T02:28:30.494Z,24.07
2019-06-27T02:31:02.098Z,24.07
2019-06-27T02:33:33.669Z,24.09
2019-06-27T02:36:05.274Z,24.07
2019-06-27T02:38:36.844Z,24.04
2019-06-27T02:41:08.461Z,24.01
2019-06-27T02:43:40.019Z,23.97
2019-06-27T02:46:11.591Z,23.94
2019-06-27T02:48:43.160Z,23.89
2019-06-27T02:51:14.772Z,23.85
2019-06-27T02:53:46.331Z,23.85
2019-06-27T02:56:17.923Z,23.79
2019-06-27T02:58:49.493Z,23.75
2019-06-27T03:01:21.110Z,23.78
2019-06-27T03:03:52.736Z,23.82
2019-06-27T03:06:24.316Z,23.84
2019-06-27T03:08:55.885Z,23.86
2019-06-27T03:11:27.450Z,23.85
2019-06-27T03:13:59.082Z,23.82
2019-06-27T03:16:30.622Z,23.83
2019-06-27T03:19:02.241Z,23.81
2019-06-27T03:21:33.786Z,23.81
2019-06-27T03:24:05.392Z,23.82
2019-06-27T03:26:37.015Z,23.82
2019-06-27T03:29:08.575Z,23.84
2019-06-27T03:31:40.149Z,23.85
2019-06-27T03:34:11.721Z,23.83
2019-06-27T03:36:43.305Z,23.80
2019-06-27T03:39:14.936Z,23.78
2019-06-27T03:41:46.524Z,23.73
2019-06-27T03:44:18.117Z,23.71
2019-06-27T03:46:49.730Z,23.71
2019-06-27T03:49:22.388Z,23.70
2019-06-27T03:51:53.981Z,23.65
2019-06-27T03:54:26.628Z,23.65
2019-06-27T03:56:58.237Z,23.61
2019-06-27T03:59:29.812Z,23.65
2019-06-27T04:02:01.397Z,23.68
2019-06-27T04:04:33.025Z,23.68
2019-06-27T04:07:04.611Z,23.73
2019-06-27T04:09:36.193Z,23.74
2019-06-27T04:12:07.786Z,23.78
2019-06-27T04:14:39.374Z,23.81
2019-06-27T04:17:10.942Z,23.87
2019-06-27T04:19:42.528Z,23.92
2019-06-27T04:22:17.333Z,24.01
2019-06-27T04:24:47.413Z,24.02
2019-06-27T04:27:18.988Z,24.06
2019-06-27T04:29:50.629Z,24.07
2019-06-27T04:32:22.240Z,24.12
2019-06-27T04:34:53.791Z,24.15
2019-06-27T04:37:25.397Z,24.15
2019-06-27T04:39:57.060Z,24.18
2019-06-27T04:42:28.619Z,24.23
2019-06-27T04:45:00.263Z,24.30
2019-06-27T04:47:31.861Z,24.38
2019-06-27T04:50:03.473Z,24.45
2019-06-27T04:52:35.015Z,24.58
2019-06-27T04:55:06.853Z,24.68
2019-06-27T04:57:38.381Z,24.73
2019-06-27T05:00:10.154Z,24.81
2019-06-27T05:02:41.738Z,24.89
2019-06-27T05:05:13.307Z,24.95
2019-06-27T05:07:44.880Z,25.03
2019-06-27T05:10:16.467Z,25.11
2019-06-27T05:12:48.053Z,25.19
2019-06-27T05:15:19.631Z,25.27
2019-06-27T05:17:51.225Z,25.37
2019-06-27T05:20:22.804Z,25.44
2019-06-27T05:22:54.389Z,25.53
2019-06-27T05:25:29.428Z,25.61
2019-06-27T05:27:59.256Z,25.68
2019-06-27T05:30:30.827Z,25.78
2019-06-27T05:33:02.420Z,25.95
2019-06-27T05:35:34.046Z,26.09
2019-06-27T05:38:05.625Z,26.28
2019-06-27T05:40:37.167Z,26.45
2019-06-27T05:43:08.755Z,26.70
2019-06-27T05:45:40.329Z,27.04
2019-06-27T05:48:12.097Z,27.46
2019-06-27T05:50:43.677Z,27.79
2019-06-27T05:53:15.271Z,28.17
2019-06-27T05:55:46.886Z,28.58
2019-06-27T05:58:18.491Z,28.94
2019-06-27T06:00:50.075Z,29.27
2019-06-27T06:03:21.711Z,29.56
2019-06-27T06:05:53.266Z,29.92
2019-06-27T06:08:24.850Z,30.24
2019-06-27T06:10:56.438Z,30.52
2019-06-27T06:13:28.019Z,30.75
2019-06-27T06:16:01.146Z,31.03
2019-06-27T06:18:33.055Z,31.22
2019-06-27T06:21:04.664Z,31.33
2019-06-27T06:23:36.259Z,31.60
2019-06-27T06:26:07.880Z,31.79
2019-06-27T06:28:39.449Z,31.86
2019-06-27T06:31:11.056Z,32.18
2019-06-27T06:33:42.634Z,32.40
2019-06-27T06:36:14.207Z,32.61
2019-06-27T06:38:45.790Z,32.66
2019-06-27T06:41:17.372Z,32.78
2019-06-27T06:43:48.949Z,32.62
2019-06-27T06:46:20.656Z,32.76
2019-06-27T06:48:52.200Z,33.01
2019-06-27T06:51:23.800Z,33.33
2019-06-27T06:53:55.352Z,33.22
2019-06-27T06:56:26.945Z,33.32
2019-06-27T06:58:58.518Z,33.54
2019-06-27T07:01:30.123Z,33.54
2019-06-27T07:04:01.703Z,33.57
2019-06-27T07:06:33.281Z,33.64
2019-06-27T07:09:05.315Z,33.75
2019-06-27T07:11:36.892Z,33.77
2019-06-27T07:14:08.714Z,33.81
2019-06-27T07:16:40.299Z,33.83
2019-06-27T07:19:11.932Z,33.74
2019-06-27T07:21:43.514Z,33.67
2019-06-27T07:24:15.142Z,33.53
2019-06-27T07:26:46.725Z,33.39
2019-06-27T07:29:18.302Z,33.42
2019-06-27T07:31:49.905Z,33.33
2019-06-27T07:34:21.486Z,33.10
2019-06-27T07:36:53.065Z,33.22
2019-06-27T07:39:24.634Z,33.49
2019-06-27T07:41:56.194Z,33.42
2019-06-27T07:44:27.780Z,33.25
2019-06-27T07:46:59.352Z,33.00
2019-06-27T07:49:33.150Z,32.91
2019-06-27T07:52:04.323Z,33.18
2019-06-27T07:54:35.988Z,33.30
2019-06-27T07:57:07.555Z,33.43
2019-06-27T07:59:39.123Z,33.10
2019-06-27T08:02:10.693Z,32.96
2019-06-27T08:04:42.440Z,33.19
2019-06-27T08:07:14.031Z,33.53
2019-06-27T08:09:45.667Z,33.65
2019-06-27T08:12:17.244Z,33.70
2019-06-27T08:14:48.820Z,33.62
2019-06-27T08:17:20.441Z,33.62
2019-06-27T08:19:52.009Z,33.40
2019-06-27T08:22:23.584Z,33.57
2019-06-27T08:24:55.169Z,33.85
2019-06-27T08:27:26.778Z,34.02
2019-06-27T08:29:58.349Z,33.95
2019-06-27T08:32:29.991Z,34.07
2019-06-27T08:35:01.628Z,34.31
2019-06-27T08:37:33.188Z,34.35
2019-06-27T08:40:05.366Z,34.44
2019-06-27T08:42:36.984Z,34.26
2019-06-27T08:45:08.894Z,34.32
2019-06-27T08:47:40.474Z,34.38
2019-06-27T08:50:13.308Z,34.41
2019-06-27T08:52:45.000Z,34.25
2019-06-27T08:55:16.561Z,34.38
2019-06-27T08:57:48.153Z,34.44
2019-06-27T09:00:20.372Z,34.43
2019-06-27T09:02:52.291Z,34.47
2019-06-27T09:05:24.824Z,34.45
2019-06-27T09:07:56.407Z,34.49
2019-06-27T09:10:28.026Z,34.54
2019-06-27T09:12:59.636Z,34.42
2019-06-27T09:15:31.172Z,34.55
2019-06-27T09:18:02.762Z,34.62
2019-06-27T09:20:35.342Z,34.45
2019-06-27T09:23:06.928Z,34.57
2019-06-27T09:25:38.549Z,34.73
2019-06-27T09:28:10.160Z,34.86
2019-06-27T09:30:41.814Z,34.94
2019-06-27T09:33:13.337Z,34.99
2019-06-27T09:35:44.955Z,35.05
2019-06-27T09:38:16.498Z,35.06
2019-06-27T09:40:48.172Z,35.11
2019-06-27T09:43:19.759Z,35.10
2019-06-27T09:45:51.335Z,35.14
2019-06-27T09:48:23.015Z,35.13
2019-06-27T09:50:54.613Z,35.00
2019-06-27T09:53:27.223Z,35.08
2019-06-27T09:55:58.867Z,35.04
2019-06-27T09:58:30.430Z,35.07
2019-06-27T10:01:05.721Z,35.15
2019-06-27T10:03:35.332Z,35.20
2019-06-27T10:06:06.925Z,35.28
2019-06-27T10:08:38.580Z,35.34
2019-06-27T10:11:10.539Z,35.38
2019-06-27T10:13:42.103Z,35.32
2019-06-27T10:16:13.741Z,35.34
2019-06-27T10:18:45.323Z,35.40
2019-06-27T10:21:16.912Z,35.39
2019-06-27T10:23:48.692Z,35.44
2019-06-27T10:26:20.365Z,35.29
2019-06-27T10:28:51.962Z,35.14
2019-06-27T10:31:23.546Z,35.06
2019-06-27T10:33:55.383Z,35.12
2019-06-27T10:36:27.032Z,35.15
2019-06-27T10:38:58.890Z,35.15
2019-06-27T10:41:30.516Z,35.03
2019-06-27T10:44:02.082Z,35.15
2019-06-27T10:46:33.656Z,35.19
2019-06-27T10:49:05.554Z,35.30
2019-06-27T10:51:37.146Z,35.32
2019-06-27T10:54:08.809Z,35.33
2019-06-27T10:56:40.449Z,35.33
2019-06-27T10:59:12.254Z,35.31
2019-06-27T11:01:43.890Z,35.33
2019-06-27T11:04:15.476Z,35.29
2019-06-27T11:06:47.048Z,35.26
2019-06-27T11:09:18.642Z,35.24
2019-06-27T11:11:50.218Z,35.19
2019-06-27T11:14:22.243Z,35.17
2019-06-27T11:16:53.842Z,35.20
2019-06-27T11:19:25.492Z,35.15
2019-06-27T11:21:57.083Z,35.21
2019-06-27T11:24:28.728Z,35.22
2019-06-27T11:27:00.434Z,35.19
2019-06-27T11:29:32.023Z,35.16
2019-06-27T11:32:03.608Z,35.14
2019-06-27T11:34:35.395Z,35.10
2019-06-27T11:37:07.044Z,35.12
2019-06-27T11:39:38.701Z,34.96
2019-06-27T11:42:10.402Z,34.89
2019-06-27T11:44:42.004Z,34.87
2019-06-27T11:47:13.731Z,34.63
2019-06-27T11:49:45.368Z,34.56
2019-06-27T11:52:16.969Z,34.55
2019-06-27T11:54:48.578Z,34.38
2019-06-27T11:57:20.220Z,34.30
2019-06-27T11:59:51.871Z,34.22
2019-06-27T12:02:23.494Z,34.14
2019-06-27T12:04:55.108Z,33.98
2019-06-27T12:07:26.749Z,34.02
2019-06-27T12:09:58.371Z,34.04
2019-06-27T12:12:29.981Z,34.07
2019-06-27T12:15:01.651Z,34.02
2019-06-27T12:17:33.310Z,33.99
2019-06-27T12:20:05.968Z,33.97
2019-06-27T12:22:37.692Z,33.90
2019-06-27T12:25:12.011Z,33.97
2019-06-27T12:27:43.645Z,33.84
2019-06-27T12:30:15.544Z,33.82
2019-06-27T12:32:52.299Z,33.63
2019-06-27T12:35:20.454Z,33.63
2019-06-27T12:37:52.060Z,33.69
2019-06-27T12:40:24.614Z,33.78
2019-06-27T12:42:56.206Z,33.83
2019-06-27T12:45:28.883Z,33.73
2019-06-27T12:48:06.499Z,33.67
2019-06-27T12:50:33.888Z,33.68
2019-06-27T12:53:05.478Z,33.64
2019-06-27T12:55:37.132Z,33.60
2019-06-27T12:58:08.982Z,33.62
2019-06-27T13:00:40.622Z,33.55
2019-06-27T13:03:12.203Z,33.42
2019-06-27T13:05:43.853Z,33.46
2019-06-27T13:08:15.418Z,33.43
2019-06-27T13:10:47.090Z,33.42
2019-06-27T13:13:18.722Z,33.45
2019-06-27T13:15:50.303Z,33.46
2019-06-27T13:18:21.916Z,33.40
2019-06-27T13:20:58.343Z,33.35
2019-06-27T13:23:26.738Z,33.32
2019-06-27T13:25:58.308Z,33.26
2019-06-27T13:28:29.923Z,33.23
2019-06-27T13:31:01.565Z,33.20
2019-06-27T13:33:33.136Z,33.13
2019-06-27T13:36:04.739Z,33.06
2019-06-27T13:38:36.326Z,33.15
2019-06-27T13:41:08.207Z,33.19
2019-06-27T13:43:39.837Z,33.30
2019-06-27T13:46:11.514Z,33.26
2019-06-27T13:48:43.163Z,33.26
2019-06-27T13:51:14.795Z,33.24
2019-06-27T13:53:46.462Z,33.15
2019-06-27T13:56:18.058Z,33.06
2019-06-27T13:58:49.633Z,33.01
2019-06-27T14:01:21.228Z,32.90
2019-06-27T14:03:52.806Z,32.91
2019-06-27T14:06:24.436Z,32.92
2019-06-27T14:08:56.035Z,32.88
2019-06-27T14:11:27.626Z,32.85
2019-06-27T14:13:59.186Z,32.89
2019-06-27T14:16:30.851Z,32.91
2019-06-27T14:19:02.395Z,32.95
2019-06-27T14:21:34.008Z,32.91
2019-06-27T14:24:05.593Z,32.83
2019-06-27T14:26:37.340Z,32.70
2019-06-27T14:29:08.916Z,32.69
2019-06-27T14:31:40.520Z,32.66
2019-06-27T14:34:12.139Z,32.59
2019-06-27T14:36:44.769Z,32.69
2019-06-27T14:39:16.365Z,32.61
2019-06-27T14:41:47.940Z,32.54
2019-06-27T14:44:19.558Z,32.55
2019-06-27T14:46:51.199Z,32.62
2019-06-27T14:49:22.801Z,32.72
2019-06-27T14:51:55.463Z,32.71
2019-06-27T14:54:27.088Z,32.63
2019-06-27T14:56:58.661Z,32.64
2019-06-27T14:59:30.288Z,32.62
2019-06-27T15:02:01.871Z,32.64
2019-06-27T15:04:33.461Z,32.67
2019-06-27T15:07:05.134Z,32.64
2019-06-27T15:09:36.758Z,32.66
2019-06-27T15:12:08.341Z,32.66
2019-06-27T15:14:39.912Z,32.65
2019-06-27T15:17:11.505Z,32.63
2019-06-27T15:19:43.097Z,32.61
2019-06-27T15:22:14.667Z,32.70
2019-06-27T15:24:46.347Z,32.65
2019-06-27T15:27:17.947Z,32.65
2019-06-27T15:29:57.027Z,32.63
2019-06-27T15:32:28.643Z,32.61
2019-06-27T15:35:00.455Z,32.64
2019-06-27T15:37:32.618Z,32.55
2019-06-27T15:40:04.555Z,32.48
2019-06-27T15:42:36.150Z,32.48
2019-06-27T15:45:08.209Z,32.47
2019-06-27T15:47:40.777Z,32.39
2019-06-27T15:50:12.635Z,32.47
2019-06-27T15:52:44.256Z,32.46
2019-06-27T15:55:15.942Z,32.44
2019-06-27T15:57:47.512Z,32.44
2019-06-27T16:00:20.349Z,32.43
2019-06-27T16:02:51.929Z,32.33
2019-06-27T16:05:23.645Z,32.31
2019-06-27T16:07:55.336Z,32.20
2019-06-27T16:10:26.929Z,32.16
2019-06-27T16:13:02.480Z,32.12
2019-06-27T16:15:32.501Z,32.12
2019-06-27T16:18:04.480Z,32.13
2019-06-27T16:20:36.151Z,32.13
2019-06-27T16:23:07.706Z,32.10
2019-06-27T16:25:39.327Z,32.06
2019-06-27T16:28:10.909Z,32.02
2019-06-27T16:30:42.477Z,32.02
2019-06-27T16:33:14.172Z,31.99
2019-06-27T16:35:45.971Z,31.95
2019-06-27T16:38:17.592Z,31.95
2019-06-27T16:40:49.242Z,31.98
2019-06-27T16:43:22.125Z,31.99
2019-06-27T16:45:53.782Z,31.97
2019-06-27T16:48:25.407Z,31.97
2019-06-27T16:50:56.999Z,31.82
2019-06-27T16:53:28.661Z,31.84
2019-06-27T16:56:00.273Z,31.82
2019-06-27T16:58:32.315Z,31.75
2019-06-27T17:01:04.007Z,31.73
2019-06-27T17:03:35.654Z,31.68
2019-06-27T17:06:07.234Z,31.60
2019-06-27T17:08:38.933Z,31.59
2019-06-27T17:11:10.710Z,31.55
2019-06-27T17:13:42.426Z,31.53
2019-06-27T17:16:14.071Z,31.52
2019-06-27T17:18:46.833Z,31.47
2019-06-27T17:21:18.495Z,31.44
2019-06-27T17:23:50.035Z,31.44
2019-06-27T17:26:21.703Z,31.41
2019-06-27T17:28:53.335Z,31.34
2019-06-27T17:31:25.224Z,31.32
2019-06-27T17:33:56.824Z,31.31
2019-06-27T17:36:28.571Z,31.25
2019-06-27T17:39:00.268Z,31.20
2019-06-27T17:41:31.982Z,31.15
2019-06-27T17:44:03.573Z,31.09
2019-06-27T17:46:35.308Z,31.04
2019-06-27T17:49:06.917Z,30.92
2019-06-27T17:51:38.696Z,30.81
2019-06-27T17:54:10.276Z,30.78
2019-06-27T17:56:41.915Z,30.75
2019-06-27T17:59:13.520Z,30.70
2019-06-27T18:01:45.242Z,30.65
2019-06-27T18:04:16.976Z,30.64
2019-06-27T18:06:48.716Z,30.57
2019-06-27T18:09:20.392Z,30.52
2019-06-27T18:11:52.050Z,30.48
2019-06-27T18:14:24.093Z,30.43
2019-06-27T18:16:56.796Z,30.46
2019-06-27T18:19:28.415Z,30.43
2019-06-27T18:22:00.012Z,30.36
2019-06-27T18:24:32.618Z,30.31
2019-06-27T18:27:04.207Z,30.24
2019-06-27T18:29:35.939Z,30.07
2019-06-27T18:32:07.552Z,29.97
2019-06-27T18:34:39.238Z,29.81
2019-06-27T18:37:10.831Z,29.71
2019-06-27T18:39:42.435Z,29.62
2019-06-27T18:42:14.015Z,29.57
2019-06-27T18:44:45.603Z,29.52
2019-06-27T18:47:17.217Z,29.40
2019-06-27T18:49:48.867Z,29.34
2019-06-27T18:52:20.504Z,29.30
2019-06-27T18:54:52.175Z,29.21
2019-06-27T18:57:23.845Z,29.16
2019-06-27T18:59:55.482Z,29.04
2019-06-27T19:02:27.115Z,28.94
2019-06-27T19:04:58.703Z,28.87
2019-06-27T19:07:44.458Z,28.80
2019-06-27T19:10:04.328Z,28.75
2019-06-27T19:12:35.966Z,28.71
2019-06-27T19:15:08.005Z,28.67
2019-06-27T19:17:39.581Z,28.60
2019-06-27T19:20:30.310Z,28.51
2019-06-27T19:23:30.040Z,28.42
2019-06-27T19:26:02.221Z,28.33
2019-06-27T19:28:33.818Z,28.18
2019-06-27T19:31:05.444Z,28.12
2019-06-27T19:33:37.052Z,28.03
2019-06-27T19:36:08.723Z,27.96
2019-06-27T19:38:40.436Z,27.93
2019-06-27T19:41:12.023Z,27.92
2019-06-27T19:43:43.629Z,27.82
2019-06-27T19:46:15.246Z,27.70
2019-06-27T19:48:46.926Z,27.62
2019-06-27T19:51:18.514Z,27.57
2019-06-27T19:53:50.209Z,27.53
2019-06-27T19:56:22.395Z,27.39
2019-06-27T19:58:54.017Z,27.36
2019-06-27T20:01:25.624Z,27.31
2019-06-27T20:03:57.211Z,27.16
2019-06-27T20:06:28.784Z,27.10
2019-06-27T20:09:00.433Z,27.02
2019-06-27T20:11:33.693Z,26.89
2019-06-27T20:14:05.312Z,26.79
2019-06-27T20:16:36.963Z,26.72
2019-06-27T20:19:08.550Z,26.65
2019-06-27T20:21:40.183Z,26.57
2019-06-27T20:24:11.800Z,26.53
2019-06-27T20:26:43.382Z,26.44
2019-06-27T20:29:15.048Z,26.33
2019-06-27T20:31:46.674Z,26.25
2019-06-27T20:34:18.327Z,26.19
2019-06-27T20:36:49.959Z,26.15
2019-06-27T20:39:21.589Z,26.05
2019-06-27T20:41:53.261Z,26.06
2019-06-27T20:44:26.944Z,26.03
2019-06-27T20:46:58.558Z,25.99
2019-06-27T20:49:30.162Z,25.96
2019-06-27T20:52:01.759Z,25.94
2019-06-27T20:54:33.392Z,25.89
2019-06-27T20:57:04.972Z,25.86
2019-06-27T20:59:36.569Z,25.80
2019-06-27T21:02:08.177Z,25.74
2019-06-27T21:04:39.764Z,25.65
2019-06-27T21:07:11.321Z,25.55
2019-06-27T21:09:42.953Z,25.40
2019-06-27T21:12:15.660Z,25.27
2019-06-27T21:14:47.276Z,25.15
2019-06-27T21:17:18.897Z,25.04
2019-06-27T21:19:50.493Z,24.96
2019-06-27T21:22:22.061Z,24.82
2019-06-27T21:24:53.611Z,24.68
2019-06-27T21:27:25.389Z,24.57
2019-06-27T21:29:56.954Z,24.47
2019-06-27T21:32:31.894Z,24.34
2019-06-27T21:35:01.866Z,24.23
2019-06-27T21:37:33.477Z,24.12
2019-06-27T21:40:05.540Z,24.01
2019-06-27T21:42:37.142Z,23.87
2019-06-27T21:45:09.024Z,23.75
2019-06-27T21:47:40.599Z,23.66
2019-06-27T21:50:12.850Z,23.62
2019-06-27T21:52:44.445Z,23.53
2019-06-27T21:55:16.327Z,23.47
2019-06-27T21:57:47.925Z,23.43
2019-06-27T22:00:20.638Z,23.41
2019-06-27T22:02:53.831Z,23.34
2019-06-27T22:05:25.417Z,23.29
2019-06-27T22:07:57.001Z,23.19
2019-06-27T22:10:28.586Z,23.15
2019-06-27T22:13:00.312Z,23.05
2019-06-27T22:15:31.954Z,22.99
2019-06-27T22:18:03.602Z,22.89
2019-06-27T22:20:35.205Z,22.80
2019-06-27T22:23:06.802Z,22.72
2019-06-27T22:25:40.889Z,22.63
2019-06-27T22:28:12.675Z,22.55
2019-06-27T22:30:44.293Z,22.45
2019-06-27T22:33:15.874Z,22.38
2019-06-27T22:35:47.444Z,22.28
2019-06-27T22:38:36.531Z,22.20
2019-06-27T22:41:25.955Z,22.09
2019-06-27T22:44:16.133Z,22.00
2019-06-27T22:47:05.324Z,21.91
2019-06-27T22:49:36.367Z,21.84
2019-06-27T22:52:45.579Z,21.71
2019-06-27T22:55:22.119Z,21.62
2019-06-27T22:57:53.676Z,21.52
2019-06-27T23:00:25.361Z,21.44
2019-06-27T23:02:56.945Z,21.31
2019-06-27T23:05:28.546Z,21.23
2019-06-27T23:08:00.124Z,21.19
2019-06-27T23:10:31.698Z,21.10
2019-06-27T23:13:03.249Z,20.99
2019-06-27T23:15:34.860Z,20.91
2019-06-27T23:18:06.619Z,20.80
2019-06-27T23:20:38.199Z,20.76
2019-06-27T23:23:09.803Z,20.76
2019-06-27T23:25:41.386Z,20.73
2019-06-27T23:28:12.961Z,20.57
2019-06-27T23:30:44.511Z,20.43
2019-06-27T23:33:16.103Z,20.32
2019-06-27T23:35:47.683Z,20.28
2019-06-27T23:38:19.254Z,20.19
2019-06-27T23:40:50.833Z,20.22
2019-06-27T23:43:23.476Z,20.07
2019-06-27T23:45:55.043Z,19.99
2019-06-27T23:48:26.607Z,19.86
2019-06-27T23:50:58.185Z,19.81
2019-06-27T23:53:29.771Z,19.73
2019-06-27T23:56:01.384Z,19.63
2019-06-27T23:58:32.958Z,19.54
